sensor_id;sensor_type;location;lat;lon;timestamp;P1;durP1;ratioP1;P2;durP2;ratioP2
17147;SDS011;8689;47.364;8.796;2024-02-15T00:00:46;4.30;;;3.50;;
17147;SDS011;8689;47.364;8.796;2024-02-15T00:03:27;3.97;;;3.67;;
17147;SDS011;8689;47.364;8.796;2024-02-15T00:06:13;4.20;;;3.90;;
17147;SDS011;8689;47.364;8.796;2024-02-15T00:08:42;3.57;;;3.37;;
17147;SDS011;8689;47.364;8.796;2024-02-15T00:11:13;3.70;;;3.50;;
17147;SDS011;8689;47.364;8.796;2024-02-15T00:13:40;4.20;;;3.83;;
17147;SDS011;8689;47.364;8.796;2024-02-15T00:16:08;3.37;;;3.17;;
17147;SDS011;8689;47.364;8.796;2024-02-15T00:18:41;3.60;;;3.40;;
17147;SDS011;8689;47.364;8.796;2024-02-15T00:23:45;3.73;;;3.43;;
17147;SDS011;8689;47.364;8.796;2024-02-15T00:26:12;3.50;;;3.30;;
17147;SDS011;8689;47.364;8.796;2024-02-15T00:31:53;3.27;;;3.07;;
17147;SDS011;8689;47.364;8.796;2024-02-15T00:34:24;5.17;;;3.50;;
17147;SDS011;8689;47.364;8.796;2024-02-15T00:36:51;3.43;;;3.20;;
17147;SDS011;8689;47.364;8.796;2024-02-15T00:39:19;3.53;;;3.23;;
17147;SDS011;8689;47.364;8.796;2024-02-15T00:41:46;4.00;;;3.00;;
17147;SDS011;8689;47.364;8.796;2024-02-15T00:44:16;3.00;;;2.80;;
17147;SDS011;8689;47.364;8.796;2024-02-15T00:46:56;2.90;;;2.70;;
17147;SDS011;8689;47.364;8.796;2024-02-15T00:49:25;3.77;;;3.40;;
17147;SDS011;8689;47.364;8.796;2024-02-15T00:51:53;3.97;;;3.07;;
17147;SDS011;8689;47.364;8.796;2024-02-15T00:54:26;3.10;;;3.00;;
17147;SDS011;8689;47.364;8.796;2024-02-15T00:56:53;3.27;;;3.17;;
17147;SDS011;8689;47.364;8.796;2024-02-15T00:59:20;3.57;;;3.37;;
17147;SDS011;8689;47.364;8.796;2024-02-15T01:01:47;3.63;;;3.50;;
17147;SDS011;8689;47.364;8.796;2024-02-15T01:04:15;3.77;;;3.53;;
17147;SDS011;8689;47.364;8.796;2024-02-15T01:06:44;3.53;;;3.23;;
17147;SDS011;8689;47.364;8.796;2024-02-15T01:09:13;4.07;;;3.80;;
17147;SDS011;8689;47.364;8.796;2024-02-15T01:11:49;3.50;;;3.20;;
17147;SDS011;8689;47.364;8.796;2024-02-15T01:14:20;3.30;;;3.13;;
17147;SDS011;8689;47.364;8.796;2024-02-15T01:16:53;3.30;;;3.20;;
17147;SDS011;8689;47.364;8.796;2024-02-15T01:19:21;3.47;;;3.17;;
17147;SDS011;8689;47.364;8.796;2024-02-15T01:21:58;4.97;;;4.57;;
17147;SDS011;8689;47.364;8.796;2024-02-15T01:24:26;3.87;;;3.20;;
17147;SDS011;8689;47.364;8.796;2024-02-15T01:29:49;3.20;;;3.00;;
17147;SDS011;8689;47.364;8.796;2024-02-15T01:32:16;3.60;;;3.40;;
17147;SDS011;8689;47.364;8.796;2024-02-15T01:34:45;3.47;;;3.27;;
17147;SDS011;8689;47.364;8.796;2024-02-15T01:37:15;3.43;;;3.13;;
17147;SDS011;8689;47.364;8.796;2024-02-15T01:39:53;3.53;;;3.23;;
17147;SDS011;8689;47.364;8.796;2024-02-15T01:42:28;3.60;;;2.93;;
17147;SDS011;8689;47.364;8.796;2024-02-15T01:45:10;3.60;;;3.40;;
17147;SDS011;8689;47.364;8.796;2024-02-15T01:47:40;3.33;;;3.13;;
17147;SDS011;8689;47.364;8.796;2024-02-15T01:50:11;3.83;;;3.63;;
17147;SDS011;8689;47.364;8.796;2024-02-15T01:52:43;3.43;;;3.13;;
17147;SDS011;8689;47.364;8.796;2024-02-15T01:55:13;3.63;;;3.33;;
17147;SDS011;8689;47.364;8.796;2024-02-15T01:57:43;4.23;;;3.87;;
17147;SDS011;8689;47.364;8.796;2024-02-15T02:00:14;3.40;;;3.20;;
17147;SDS011;8689;47.364;8.796;2024-02-15T02:03:11;3.60;;;3.40;;
17147;SDS011;8689;47.364;8.796;2024-02-15T02:05:43;3.53;;;3.33;;
17147;SDS011;8689;47.364;8.796;2024-02-15T02:08:12;3.97;;;3.67;;
17147;SDS011;8689;47.364;8.796;2024-02-15T02:11:48;3.63;;;3.43;;
17147;SDS011;8689;47.364;8.796;2024-02-15T02:14:18;3.60;;;3.40;;
17147;SDS011;8689;47.364;8.796;2024-02-15T02:16:49;3.50;;;3.30;;
17147;SDS011;8689;47.364;8.796;2024-02-15T02:49:57;3.93;;;3.60;;
17147;SDS011;8689;47.364;8.796;2024-02-15T03:03:32;3.60;;;3.40;;
17147;SDS011;8689;47.364;8.796;2024-02-15T03:53:39;3.57;;;3.23;;
17147;SDS011;8689;47.364;8.796;2024-02-15T03:56:09;3.70;;;3.40;;
17147;SDS011;8689;47.364;8.796;2024-02-15T03:58:37;2.87;;;2.67;;
17147;SDS011;8689;47.364;8.796;2024-02-15T04:08:08;3.30;;;3.10;;
17147;SDS011;8689;47.364;8.796;2024-02-15T04:14:50;2.90;;;2.80;;
17147;SDS011;8689;47.364;8.796;2024-02-15T04:17:41;3.00;;;2.80;;
17147;SDS011;8689;47.364;8.796;2024-02-15T04:20:20;3.23;;;3.03;;
17147;SDS011;8689;47.364;8.796;2024-02-15T04:23:23;3.47;;;3.27;;
17147;SDS011;8689;47.364;8.796;2024-02-15T04:25:59;3.70;;;3.47;;
17147;SDS011;8689;47.364;8.796;2024-02-15T04:28:49;3.47;;;3.17;;
17147;SDS011;8689;47.364;8.796;2024-02-15T04:32:26;3.37;;;3.27;;
17147;SDS011;8689;47.364;8.796;2024-02-15T04:34:55;2.77;;;2.67;;
17147;SDS011;8689;47.364;8.796;2024-02-15T04:37:24;3.10;;;2.90;;
17147;SDS011;8689;47.364;8.796;2024-02-15T04:39:54;2.90;;;2.80;;
17147;SDS011;8689;47.364;8.796;2024-02-15T05:28:51;2.90;;;2.70;;
17147;SDS011;8689;47.364;8.796;2024-02-15T05:37:23;2.60;;;2.40;;
17147;SDS011;8689;47.364;8.796;2024-02-15T05:46:56;3.53;;;2.73;;
17147;SDS011;8689;47.364;8.796;2024-02-15T05:49:36;2.37;;;2.27;;
17147;SDS011;8689;47.364;8.796;2024-02-15T05:52:05;2.93;;;2.40;;
17147;SDS011;8689;47.364;8.796;2024-02-15T05:54:39;2.27;;;2.17;;
17147;SDS011;8689;47.364;8.796;2024-02-15T06:00:02;2.60;;;2.50;;
17147;SDS011;8689;47.364;8.796;2024-02-15T06:05:28;3.03;;;2.73;;
17147;SDS011;8689;47.364;8.796;2024-02-15T06:08:02;2.60;;;2.47;;
17147;SDS011;8689;47.364;8.796;2024-02-15T06:10:34;2.60;;;2.47;;
17147;SDS011;8689;47.364;8.796;2024-02-15T06:13:05;2.97;;;2.77;;
17147;SDS011;8689;47.364;8.796;2024-02-15T06:21:52;2.77;;;2.57;;
17147;SDS011;8689;47.364;8.796;2024-02-15T06:24:49;2.70;;;2.60;;
17147;SDS011;8689;47.364;8.796;2024-02-15T06:27:18;3.00;;;2.80;;
17147;SDS011;8689;47.364;8.796;2024-02-15T06:29:46;3.60;;;2.80;;
17147;SDS011;8689;47.364;8.796;2024-02-15T06:36:15;2.80;;;2.67;;
17147;SDS011;8689;47.364;8.796;2024-02-15T06:39:22;2.40;;;2.30;;
17147;SDS011;8689;47.364;8.796;2024-02-15T06:42:46;2.87;;;2.67;;
17147;SDS011;8689;47.364;8.796;2024-02-15T06:45:17;2.67;;;2.57;;
17147;SDS011;8689;47.364;8.796;2024-02-15T06:48:11;3.00;;;2.80;;
17147;SDS011;8689;47.364;8.796;2024-02-15T06:50:50;2.90;;;2.70;;
17147;SDS011;8689;47.364;8.796;2024-02-15T06:53:40;2.90;;;2.73;;
17147;SDS011;8689;47.364;8.796;2024-02-15T11:09:55;3.97;;;2.97;;
17147;SDS011;8689;47.364;8.796;2024-02-15T11:12:29;2.53;;;2.33;;
17147;SDS011;8689;47.364;8.796;2024-02-15T11:15:08;2.57;;;2.27;;
17147;SDS011;8689;47.364;8.796;2024-02-15T11:18:32;2.07;;;1.97;;
17147;SDS011;8689;47.364;8.796;2024-02-15T11:31:07;2.63;;;2.43;;
17147;SDS011;8689;47.364;8.796;2024-02-15T11:33:37;3.83;;;2.77;;
17147;SDS011;8689;47.364;8.796;2024-02-15T11:36:05;2.80;;;2.53;;
17147;SDS011;8689;47.364;8.796;2024-02-15T11:38:35;3.60;;;2.90;;
17147;SDS011;8689;47.364;8.796;2024-02-15T11:41:09;3.17;;;2.70;;
17147;SDS011;8689;47.364;8.796;2024-02-15T11:43:54;2.27;;;2.07;;
17147;SDS011;8689;47.364;8.796;2024-02-15T11:49:25;3.17;;;2.57;;
17147;SDS011;8689;47.364;8.796;2024-02-15T11:58:43;2.87;;;2.23;;
17147;SDS011;8689;47.364;8.796;2024-02-15T12:15:23;3.10;;;2.63;;
17147;SDS011;8689;47.364;8.796;2024-02-15T12:19:03;4.13;;;2.17;;
17147;SDS011;8689;47.364;8.796;2024-02-15T12:28:29;5.45;;;2.58;;
17147;SDS011;8689;47.364;8.796;2024-02-15T13:26:33;2.10;;;1.90;;
17147;SDS011;8689;47.364;8.796;2024-02-15T14:46:29;4.83;;;4.40;;
17147;SDS011;8689;47.364;8.796;2024-02-15T14:48:56;8.20;;;4.80;;
17147;SDS011;8689;47.364;8.796;2024-02-15T16:04:03;5.27;;;4.77;;
17147;SDS011;8689;47.364;8.796;2024-02-15T16:06:41;6.67;;;4.73;;
17147;SDS011;8689;47.364;8.796;2024-02-15T16:30:42;9.97;;;7.07;;
17147;SDS011;8689;47.364;8.796;2024-02-15T16:33:10;7.57;;;6.20;;
17147;SDS011;8689;47.364;8.796;2024-02-15T16:35:49;8.83;;;5.37;;
17147;SDS011;8689;47.364;8.796;2024-02-15T16:45:31;5.13;;;4.67;;
17147;SDS011;8689;47.364;8.796;2024-02-15T16:51:25;5.60;;;5.10;;
17147;SDS011;8689;47.364;8.796;2024-02-15T16:57:18;6.47;;;5.03;;
17147;SDS011;8689;47.364;8.796;2024-02-15T16:59:46;8.23;;;4.80;;
17147;SDS011;8689;47.364;8.796;2024-02-15T17:02:20;7.27;;;5.67;;
17147;SDS011;8689;47.364;8.796;2024-02-15T17:04:50;8.57;;;4.80;;
17147;SDS011;8689;47.364;8.796;2024-02-15T17:07:18;5.63;;;5.13;;
17147;SDS011;8689;47.364;8.796;2024-02-15T17:10:05;8.13;;;5.57;;
17147;SDS011;8689;47.364;8.796;2024-02-15T17:13:02;5.27;;;4.77;;
17147;SDS011;8689;47.364;8.796;2024-02-15T17:15:33;6.33;;;5.30;;
17147;SDS011;8689;47.364;8.796;2024-02-15T17:18:01;10.57;;;5.57;;
17147;SDS011;8689;47.364;8.796;2024-02-15T17:20:49;9.03;;;5.67;;
17147;SDS011;8689;47.364;8.796;2024-02-15T17:23:20;8.97;;;5.37;;
17147;SDS011;8689;47.364;8.796;2024-02-15T17:25:49;12.43;;;6.43;;
17147;SDS011;8689;47.364;8.796;2024-02-15T17:28:23;7.43;;;6.03;;
17147;SDS011;8689;47.364;8.796;2024-02-15T17:31:05;7.60;;;6.00;;
17147;SDS011;8689;47.364;8.796;2024-02-15T17:33:50;7.23;;;5.47;;
17147;SDS011;8689;47.364;8.796;2024-02-15T17:36:36;6.00;;;5.07;;
17147;SDS011;8689;47.364;8.796;2024-02-15T17:39:05;9.70;;;4.80;;
17147;SDS011;8689;47.364;8.796;2024-02-15T17:41:33;6.00;;;5.50;;
17147;SDS011;8689;47.364;8.796;2024-02-15T17:44:06;5.77;;;5.27;;
17147;SDS011;8689;47.364;8.796;2024-02-15T17:46:35;7.57;;;5.33;;
17147;SDS011;8689;47.364;8.796;2024-02-15T17:49:03;7.10;;;6.37;;
17147;SDS011;8689;47.364;8.796;2024-02-15T17:52:51;6.80;;;5.87;;
17147;SDS011;8689;47.364;8.796;2024-02-15T17:54:34;6.53;;;5.73;;
17147;SDS011;8689;47.364;8.796;2024-02-15T17:57:19;5.40;;;4.93;;
17147;SDS011;8689;47.364;8.796;2024-02-15T17:59:52;8.37;;;5.87;;
17147;SDS011;8689;47.364;8.796;2024-02-15T18:02:58;8.33;;;5.90;;
17147;SDS011;8689;47.364;8.796;2024-02-15T18:05:52;7.30;;;5.30;;
17147;SDS011;8689;47.364;8.796;2024-02-15T18:11:46;8.40;;;5.73;;
17147;SDS011;8689;47.364;8.796;2024-02-15T18:14:25;7.37;;;6.00;;
17147;SDS011;8689;47.364;8.796;2024-02-15T18:17:11;7.77;;;5.90;;
17147;SDS011;8689;47.364;8.796;2024-02-15T18:19:55;8.03;;;6.37;;
17147;SDS011;8689;47.364;8.796;2024-02-15T18:22:39;7.83;;;6.00;;
17147;SDS011;8689;47.364;8.796;2024-02-15T18:25:08;6.70;;;5.83;;
17147;SDS011;8689;47.364;8.796;2024-02-15T18:27:53;7.00;;;6.20;;
17147;SDS011;8689;47.364;8.796;2024-02-15T18:30:39;9.57;;;6.13;;
17147;SDS011;8689;47.364;8.796;2024-02-15T18:33:35;8.13;;;6.53;;
17147;SDS011;8689;47.364;8.796;2024-02-15T18:36:11;8.97;;;6.23;;
17147;SDS011;8689;47.364;8.796;2024-02-15T18:38:47;6.10;;;5.57;;
17147;SDS011;8689;47.364;8.796;2024-02-15T18:41:16;13.63;;;6.60;;
17147;SDS011;8689;47.364;8.796;2024-02-15T18:46:36;7.83;;;6.53;;
17147;SDS011;8689;47.364;8.796;2024-02-15T18:49:05;7.13;;;5.57;;
17147;SDS011;8689;47.364;8.796;2024-02-15T18:51:35;7.53;;;6.33;;
17147;SDS011;8689;47.364;8.796;2024-02-15T18:54:13;5.80;;;5.23;;
17147;SDS011;8689;47.364;8.796;2024-02-15T18:58:24;7.30;;;5.83;;
17147;SDS011;8689;47.364;8.796;2024-02-15T19:00:15;5.63;;;5.10;;
17147;SDS011;8689;47.364;8.796;2024-02-15T19:02:45;6.23;;;5.37;;
17147;SDS011;8689;47.364;8.796;2024-02-15T19:05:13;6.47;;;5.03;;
17147;SDS011;8689;47.364;8.796;2024-02-15T19:07:42;6.77;;;5.53;;
17147;SDS011;8689;47.364;8.796;2024-02-15T19:10:11;6.40;;;5.80;;
17147;SDS011;8689;47.364;8.796;2024-02-15T19:26:23;6.73;;;5.57;;
17147;SDS011;8689;47.364;8.796;2024-02-15T19:32:07;6.13;;;5.40;;
17147;SDS011;8689;47.364;8.796;2024-02-15T19:38:12;7.93;;;5.37;;
17147;SDS011;8689;47.364;8.796;2024-02-15T19:41:18;7.23;;;5.20;;
17147;SDS011;8689;47.364;8.796;2024-02-15T19:43:48;8.53;;;6.23;;
17147;SDS011;8689;47.364;8.796;2024-02-15T19:49:47;6.87;;;5.77;;
17147;SDS011;8689;47.364;8.796;2024-02-15T19:52:15;10.07;;;6.20;;
17147;SDS011;8689;47.364;8.796;2024-02-15T20:02:02;7.07;;;6.37;;
17147;SDS011;8689;47.364;8.796;2024-02-15T20:05:13;12.53;;;6.60;;
17147;SDS011;8689;47.364;8.796;2024-02-15T20:07:41;7.40;;;6.17;;
17147;SDS011;8689;47.364;8.796;2024-02-15T20:19:47;10.57;;;6.77;;
17147;SDS011;8689;47.364;8.796;2024-02-15T20:22:15;10.80;;;7.77;;
17147;SDS011;8689;47.364;8.796;2024-02-15T20:24:43;7.37;;;6.13;;
17147;SDS011;8689;47.364;8.796;2024-02-15T20:27:10;9.37;;;6.80;;
17147;SDS011;8689;47.364;8.796;2024-02-15T20:29:37;6.67;;;5.93;;
17147;SDS011;8689;47.364;8.796;2024-02-15T20:32:05;7.77;;;6.50;;
17147;SDS011;8689;47.364;8.796;2024-02-15T20:34:34;7.87;;;7.00;;
17147;SDS011;8689;47.364;8.796;2024-02-15T20:37:01;9.33;;;7.90;;
17147;SDS011;8689;47.364;8.796;2024-02-15T20:39:29;12.50;;;7.10;;
17147;SDS011;8689;47.364;8.796;2024-02-15T20:45:18;9.00;;;6.57;;
17147;SDS011;8689;47.364;8.796;2024-02-15T20:47:45;8.47;;;7.43;;
17147;SDS011;8689;47.364;8.796;2024-02-15T20:50:29;10.60;;;6.53;;
17147;SDS011;8689;47.364;8.796;2024-02-15T20:52:57;7.87;;;6.23;;
17147;SDS011;8689;47.364;8.796;2024-02-15T20:55:24;7.60;;;6.70;;
17147;SDS011;8689;47.364;8.796;2024-02-15T20:58:11;7.57;;;6.87;;
17147;SDS011;8689;47.364;8.796;2024-02-15T21:00:55;10.00;;;6.93;;
17147;SDS011;8689;47.364;8.796;2024-02-15T21:03:23;8.80;;;7.60;;
17147;SDS011;8689;47.364;8.796;2024-02-15T21:05:52;8.03;;;6.83;;
17147;SDS011;8689;47.364;8.796;2024-02-15T21:08:20;9.50;;;8.13;;
17147;SDS011;8689;47.364;8.796;2024-02-15T21:11:03;9.53;;;6.97;;
17147;SDS011;8689;47.364;8.796;2024-02-15T21:13:30;8.10;;;6.83;;
17147;SDS011;8689;47.364;8.796;2024-02-15T21:15:57;9.37;;;7.80;;
17147;SDS011;8689;47.364;8.796;2024-02-15T21:18:26;7.93;;;7.13;;
17147;SDS011;8689;47.364;8.796;2024-02-15T21:20:55;9.50;;;7.13;;
17147;SDS011;8689;47.364;8.796;2024-02-15T21:23:24;9.20;;;7.27;;
17147;SDS011;8689;47.364;8.796;2024-02-15T21:26:02;10.57;;;7.53;;
17147;SDS011;8689;47.364;8.796;2024-02-15T21:28:34;9.63;;;7.53;;
17147;SDS011;8689;47.364;8.796;2024-02-15T21:31:09;12.53;;;9.10;;
17147;SDS011;8689;47.364;8.796;2024-02-15T21:33:41;16.07;;;11.83;;
17147;SDS011;8689;47.364;8.796;2024-02-15T21:36:11;17.50;;;14.17;;
17147;SDS011;8689;47.364;8.796;2024-02-15T21:38:39;22.87;;;14.47;;
17147;SDS011;8689;47.364;8.796;2024-02-15T21:41:09;20.13;;;15.00;;
17147;SDS011;8689;47.364;8.796;2024-02-15T21:43:37;19.13;;;12.43;;
17147;SDS011;8689;47.364;8.796;2024-02-15T21:46:11;18.30;;;12.70;;
17147;SDS011;8689;47.364;8.796;2024-02-15T21:48:41;19.23;;;11.73;;
17147;SDS011;8689;47.364;8.796;2024-02-15T21:51:11;18.03;;;10.60;;
17147;SDS011;8689;47.364;8.796;2024-02-15T21:53:39;11.70;;;8.63;;
17147;SDS011;8689;47.364;8.796;2024-02-15T21:56:06;11.03;;;8.63;;
17147;SDS011;8689;47.364;8.796;2024-02-15T21:58:34;14.03;;;8.27;;
17147;SDS011;8689;47.364;8.796;2024-02-15T22:01:02;10.60;;;7.00;;
17147;SDS011;8689;47.364;8.796;2024-02-15T22:03:29;11.50;;;7.87;;
17147;SDS011;8689;47.364;8.796;2024-02-15T22:05:56;11.57;;;7.90;;
17147;SDS011;8689;47.364;8.796;2024-02-15T22:08:26;10.80;;;7.83;;
17147;SDS011;8689;47.364;8.796;2024-02-15T22:10:53;12.27;;;7.13;;
17147;SDS011;8689;47.364;8.796;2024-02-15T22:13:20;9.43;;;7.33;;
17147;SDS011;8689;47.364;8.796;2024-02-15T22:15:47;8.47;;;6.97;;
17147;SDS011;8689;47.364;8.796;2024-02-15T22:18:14;9.43;;;7.20;;
17147;SDS011;8689;47.364;8.796;2024-02-15T22:20:42;9.97;;;7.53;;
17147;SDS011;8689;47.364;8.796;2024-02-15T22:23:11;9.37;;;6.50;;
17147;SDS011;8689;47.364;8.796;2024-02-15T22:25:40;8.03;;;6.30;;
17147;SDS011;8689;47.364;8.796;2024-02-15T22:28:08;7.17;;;6.47;;
17147;SDS011;8689;47.364;8.796;2024-02-15T22:33:27;8.90;;;7.20;;
17147;SDS011;8689;47.364;8.796;2024-02-15T22:35:54;8.37;;;6.33;;
17147;SDS011;8689;47.364;8.796;2024-02-15T22:38:21;8.60;;;7.07;;
17147;SDS011;8689;47.364;8.796;2024-02-15T22:40:50;10.07;;;7.47;;
17147;SDS011;8689;47.364;8.796;2024-02-15T22:43:17;10.57;;;6.93;;
17147;SDS011;8689;47.364;8.796;2024-02-15T22:45:45;8.90;;;6.53;;
17147;SDS011;8689;47.364;8.796;2024-02-15T22:48:13;9.93;;;7.30;;
17147;SDS011;8689;47.364;8.796;2024-02-15T22:50:40;11.87;;;6.50;;
17147;SDS011;8689;47.364;8.796;2024-02-15T22:53:08;10.43;;;6.70;;
17147;SDS011;8689;47.364;8.796;2024-02-15T22:55:35;8.53;;;6.70;;
17147;SDS011;8689;47.364;8.796;2024-02-15T22:58:04;10.00;;;6.53;;
17147;SDS011;8689;47.364;8.796;2024-02-15T23:00:33;13.27;;;7.23;;
17147;SDS011;8689;47.364;8.796;2024-02-15T23:03:01;9.13;;;6.53;;
17147;SDS011;8689;47.364;8.796;2024-02-15T23:05:29;8.93;;;6.87;;
17147;SDS011;8689;47.364;8.796;2024-02-15T23:07:57;8.17;;;6.27;;
17147;SDS011;8689;47.364;8.796;2024-02-15T23:10:24;7.20;;;6.33;;
17147;SDS011;8689;47.364;8.796;2024-02-15T23:12:52;7.27;;;6.17;;
17147;SDS011;8689;47.364;8.796;2024-02-15T23:15:21;8.77;;;6.90;;
17147;SDS011;8689;47.364;8.796;2024-02-15T23:17:48;7.93;;;6.23;;
17147;SDS011;8689;47.364;8.796;2024-02-15T23:20:15;7.50;;;6.20;;
17147;SDS011;8689;47.364;8.796;2024-02-15T23:22:43;10.93;;;6.07;;
17147;SDS011;8689;47.364;8.796;2024-02-15T23:25:11;8.00;;;6.30;;
17147;SDS011;8689;47.364;8.796;2024-02-15T23:27:38;8.67;;;6.70;;
17147;SDS011;8689;47.364;8.796;2024-02-15T23:30:06;8.63;;;7.73;;
17147;SDS011;8689;47.364;8.796;2024-02-15T23:32:37;6.87;;;5.90;;
17147;SDS011;8689;47.364;8.796;2024-02-15T23:35:05;9.17;;;6.70;;
17147;SDS011;8689;47.364;8.796;2024-02-15T23:37:36;8.33;;;6.20;;
17147;SDS011;8689;47.364;8.796;2024-02-15T23:40:20;6.60;;;5.90;;
17147;SDS011;8689;47.364;8.796;2024-02-15T23:42:50;8.60;;;6.67;;
17147;SDS011;8689;47.364;8.796;2024-02-15T23:45:18;8.50;;;6.43;;
17147;SDS011;8689;47.364;8.796;2024-02-15T23:47:47;6.77;;;6.00;;
17147;SDS011;8689;47.364;8.796;2024-02-15T23:50:14;7.23;;;6.03;;
17147;SDS011;8689;47.364;8.796;2024-02-15T23:52:44;10.50;;;5.97;;
17147;SDS011;8689;47.364;8.796;2024-02-15T23:55:12;7.10;;;6.40;;
17147;SDS011;8689;47.364;8.796;2024-02-15T23:57:42;7.70;;;6.90;;
